Time;durP1;ratioP1;P1;durP2;ratioP2;P2;SDS_P1;SDS_P2;PMS_P1;PMS_P2;Temp;Humidity;BMP_temperature;BMP_pressure;BME280_temperature;BME280_humidity;BME280_pressure;Samples;Min_cycle;Max_cycle;Signal;HPM_P1;HPM_P2
2023/10/20 00:00:42;;;;;;;18.95;9.93;;;;;;;14.70;100.00;97171.38;6119384;23;20089;-88
2023/10/20 00:03:09;;;;;;;72.88;10.15;;;;;;;14.68;100.00;97168.13;6094839;23;20018;-87
2023/10/20 00:05:37;;;;;;;16.88;8.85;;;;;;;14.68;100.00;97168.13;6095788;23;20435;-87
2023/10/20 00:08:04;;;;;;;14.93;9.02;;;;;;;14.67;100.00;97159.31;6096010;23;20021;-87
2023/10/20 00:10:40;;;;;;;18.67;8.68;;;;;;;14.67;100.00;97156.63;6095198;23;20491;-88
2023/10/20 00:13:08;;;;;;;16.90;10.13;;;;;;;14.70;100.00;97161.50;6072602;23;20049;-88
2023/10/20 00:15:35;;;;;;;22.40;10.45;;;;;;;14.68;100.00;97149.44;6120588;23;20017;-88
2023/10/20 00:18:02;;;;;;;19.85;11.15;;;;;;;14.68;100.00;97146.75;6094822;23;20041;-88
2023/10/20 00:20:29;;;;;;;21.65;11.82;;;;;;;14.70;100.00;97155.34;6118999;23;20017;-87
2023/10/20 00:22:56;;;;;;;23.48;11.30;;;;;;;14.70;100.00;97164.19;6096373;23;20037;-88
2023/10/20 00:25:23;;;;;;;22.52;12.00;;;;;;;14.71;100.00;97165.03;6095497;23;20029;-88
2023/10/20 00:27:50;;;;;;;18.90;10.73;;;;;;;14.73;100.00;97168.25;6095377;23;20030;-88
2023/10/20 00:30:17;;;;;;;22.58;12.85;;;;;;;14.71;100.00;97155.16;6094324;23;20022;-88
2023/10/20 00:32:45;;;;;;;19.63;11.43;;;;;;;14.70;100.00;97153.50;6095364;23;20441;-87
2023/10/20 00:35:15;;;;;;;17.02;10.48;;;;;;;14.71;100.00;97140.97;6094847;23;20068;-87
2023/10/20 00:37:42;;;;;;;24.60;13.02;;;;;;;14.72;100.00;97135.38;6118461;23;20027;-88
2023/10/20 00:40:10;;;;;;;25.67;13.35;;;;;;;14.71;100.00;97132.97;6094630;23;20040;-88
2023/10/20 00:42:37;;;;;;;25.13;13.70;;;;;;;14.70;100.00;97152.69;6094563;23;20024;-88
2023/10/20 00:45:06;;;;;;;23.10;13.35;;;;;;;14.71;100.00;97152.47;6093512;23;20045;-88
2023/10/20 00:47:35;;;;;;;25.13;13.60;;;;;;;14.72;100.00;97155.94;6119195;23;20009;-88
2023/10/20 00:50:04;;;;;;;24.80;13.85;;;;;;;14.72;100.00;97145.28;6120405;23;20737;-88
2023/10/20 00:52:35;;;;;;;30.63;14.63;;;;;;;14.72;100.00;97137.25;6071308;23;20029;-88
2023/10/20 00:55:03;;;;;;;29.63;14.70;;;;;;;14.73;100.00;97136.19;6047905;23;20092;-87
2023/10/20 00:57:32;;;;;;;25.85;13.32;;;;;;;14.73;100.00;97133.53;6070668;23;20080;-88
2023/10/20 00:59:59;;;;;;;24.95;13.30;;;;;;;14.72;100.00;97134.59;6094415;23;20044;-88
2023/10/20 01:02:29;;;;;;;23.77;14.45;;;;;;;14.72;100.00;97131.91;6070288;23;20119;-88
2023/10/20 01:04:57;;;;;;;26.67;14.20;;;;;;;14.72;100.00;97132.72;6072055;23;20462;-88
2023/10/20 01:07:24;;;;;;;23.17;13.13;;;;;;;14.72;100.00;97131.91;6118593;23;20447;-89
2023/10/20 01:09:51;;;;;;;26.15;14.13;;;;;;;14.73;100.00;97131.69;6071120;23;20044;-88
2023/10/20 01:12:18;;;;;;;31.63;14.73;;;;;;;14.73;100.00;97128.19;6095108;23;20026;-88
2023/10/20 01:14:44;;;;;;;30.77;13.98;;;;;;;14.71;100.00;97112.41;6094531;23;20362;-87
2023/10/20 01:17:12;;;;;;;29.13;14.63;;;;;;;14.69;100.00;97103.81;6069305;23;20025;-87
2023/10/20 01:19:40;;;;;;;27.33;15.07;;;;;;;14.71;100.00;97092.91;6070993;23;20437;-87
2023/10/20 01:22:07;;;;;;;38.50;15.55;;;;;;;14.71;100.00;97095.56;6119434;23;20025;-88
2023/10/20 01:24:35;;;;;;;34.60;16.38;;;;;;;14.67;100.00;97095.19;6070861;23;20025;-88
2023/10/20 01:27:02;;;;;;;30.13;15.75;;;;;;;14.66;100.00;97088.25;6070192;23;20048;-87
2023/10/20 01:29:31;;;;;;;32.47;15.38;;;;;;;14.67;100.00;97079.19;6096113;23;20082;-87
2023/10/20 01:31:58;;;;;;;34.83;14.18;;;;;;;14.66;100.00;97058.88;6093741;23;20025;-88
2023/10/20 01:34:26;;;;;;;29.02;15.93;;;;;;;14.66;100.00;97060.72;6093482;23;20030;-88
2023/10/20 01:36:53;;;;;;;27.80;14.15;;;;;;;14.65;100.00;97059.88;6070342;23;20355;-87
2023/10/20 01:39:20;;;;;;;26.58;14.32;;;;;;;14.64;100.00;97050.25;6093949;23;20021;-88
2023/10/20 01:41:47;;;;;;;29.13;14.55;;;;;;;14.61;100.00;97048.06;6109154;23;20123;-88
2023/10/20 01:44:14;;;;;;;28.42;14.45;;;;;;;14.64;100.00;97033.44;6119087;23;20021;-88
2023/10/20 01:46:49;;;;;;;27.80;14.75;;;;;;;14.64;100.00;97022.75;6094487;23;20021;-88
2023/10/20 01:49:17;;;;;;;25.35;14.10;;;;;;;14.64;100.00;97020.06;6119894;23;20076;-87
2023/10/20 01:51:44;;;;;;;23.17;13.25;;;;;;;14.65;100.00;97016.34;6119396;23;20051;-88
2023/10/20 01:54:11;;;;;;;24.17;13.82;;;;;;;14.66;100.00;97016.13;6070107;23;20077;-88
2023/10/20 01:56:37;;;;;;;25.67;14.48;;;;;;;14.68;100.00;97023.91;6070426;23;20029;-88
2023/10/20 01:59:04;;;;;;;29.02;15.57;;;;;;;14.67;100.00;97020.41;6070226;23;20080;-88
2023/10/20 02:01:31;;;;;;;28.83;15.07;;;;;;;14.66;100.00;97004.63;6117934;23;20041;-88
2023/10/20 02:03:58;;;;;;;27.98;14.15;;;;;;;14.66;100.00;96997.44;6070732;23;22522;-87
2023/10/20 02:06:25;;;;;;;29.10;12.98;;;;;;;14.68;100.00;96999.84;6119314;23;20096;-88
2023/10/20 02:08:53;;;;;;;33.35;16.65;;;;;;;14.68;100.00;96983.84;6145986;23;20028;-88
2023/10/20 02:11:20;;;;;;;24.80;13.27;;;;;;;14.65;100.00;96970.94;6118224;23;20025;-88
2023/10/20 02:13:47;;;;;;;28.25;15.32;;;;;;;14.64;100.00;96962.13;6117824;23;20022;-88
2023/10/20 02:16:15;;;;;;;23.65;13.73;;;;;;;14.65;100.00;96962.94;6118874;23;20092;-88
2023/10/20 02:18:44;;;;;;;27.52;14.07;;;;;;;14.63;100.00;96943.66;6094741;23;20097;-87
2023/10/20 02:21:10;;;;;;;22.83;13.40;;;;;;;14.63;100.00;96941.81;6119502;23;20024;-88
2023/10/20 02:23:40;;;;;;;29.00;14.40;;;;;;;14.63;100.00;96938.31;6118170;23;20040;-88
2023/10/20 02:26:09;;;;;;;29.45;15.25;;;;;;;14.63;100.00;96930.31;6094257;23;20028;-87
2023/10/20 02:28:36;;;;;;;25.92;14.07;;;;;;;14.58;100.00;96917.69;6118167;23;20022;-87
2023/10/20 02:31:12;;;;;;;28.98;14.25;;;;;;;14.50;100.00;96918.81;6094224;23;20092;-88
2023/10/20 02:33:39;;;;;;;26.77;13.00;;;;;;;14.54;100.00;96905.81;6094555;23;20442;-88
2023/10/20 02:36:06;;;;;;;26.80;13.68;;;;;;;14.54;100.00;96901.28;6118371;23;20026;-88
2023/10/20 02:38:33;;;;;;;23.00;13.38;;;;;;;14.60;100.00;96898.72;6119405;23;20145;-88
2023/10/20 02:40:59;;;;;;;19.17;12.45;;;;;;;14.58;100.00;96890.97;6118014;23;20272;-88
2023/10/20 02:43:28;;;;;;;20.88;12.75;;;;;;;14.60;100.00;96885.38;6119672;23;20076;-87
2023/10/20 02:45:55;;;;;;;23.92;12.60;;;;;;;14.61;100.00;96887.81;6094700;23;20323;-87
2023/10/20 02:48:22;;;;;;;20.40;11.82;;;;;;;14.64;100.00;96886.56;6118369;23;20017;-88
2023/10/20 02:50:50;;;;;;;22.83;12.77;;;;;;;14.64;100.00;96878.53;6118225;23;20104;-88
2023/10/20 02:53:17;;;;;;;20.45;11.48;;;;;;;14.64;100.00;96870.53;6118972;23;20378;-87
2023/10/20 02:55:45;;;;;;;24.63;13.45;;;;;;;14.67;100.00;96873.53;6096551;23;20071;-88
2023/10/20 02:58:15;;;;;;;21.20;11.85;;;;;;;14.65;100.00;96866.78;6072315;23;20386;-88
2023/10/20 03:00:49;;;;;;;23.10;12.50;;;;;;;14.64;100.00;96851.84;6095270;23;20466;-87
2023/10/20 03:03:17;;;;;;;25.17;12.02;;;;;;;14.66;100.00;96857.75;6096544;23;20027;-88
2023/10/20 03:05:45;;;;;;;22.73;11.48;;;;;;;14.64;100.00;96852.63;6121174;23;20030;-88
2023/10/20 03:08:12;;;;;;;18.88;12.35;;;;;;;14.68;100.00;96844.97;6095753;23;20745;-87
2023/10/20 03:10:39;;;;;;;24.48;12.57;;;;;;;14.65;100.00;96832.06;6095775;23;20017;-88
2023/10/20 03:13:06;;;;;;;21.23;11.52;;;;;;;14.66;100.00;96839.06;6118448;23;20033;-88
2023/10/20 03:15:33;;;;;;;21.50;12.10;;;;;;;14.64;100.00;96841.97;6096165;23;20475;-87
2023/10/20 03:18:00;;;;;;;22.77;11.25;;;;;;;14.64;100.00;96825.94;6095619;23;20022;-87
2023/10/20 03:20:32;;;;;;;24.20;12.35;;;;;;;14.64;100.00;96823.25;6095213;23;20089;-88
2023/10/20 03:22:59;;;;;;;21.65;11.85;;;;;;;14.63;100.00;96824.31;6096488;23;20088;-88
2023/10/20 03:25:26;;;;;;;18.77;11.48;;;;;;;14.62;100.00;96824.53;6095755;23;20350;-88
2023/10/20 03:27:53;;;;;;;21.67;11.95;;;;;;;14.65;100.00;96816.06;6120765;23;20328;-88
2023/10/20 03:30:20;;;;;;;20.17;12.05;;;;;;;14.64;100.00;96809.09;6089528;23;20605;-88
2023/10/20 03:32:50;;;;;;;23.90;12.68;;;;;;;14.64;100.00;96815.25;6120376;23;20088;-87
2023/10/20 03:35:17;;;;;;;22.85;11.30;;;;;;;14.65;100.00;96824.88;6144304;23;20021;-87
2023/10/20 03:37:44;;;;;;;27.55;12.52;;;;;;;14.65;100.00;96818.72;6072262;23;20025;-88
2023/10/20 03:40:16;;;;;;;22.00;12.77;;;;;;;14.64;100.00;96828.59;6119891;23;20021;-87
2023/10/20 03:42:44;;;;;;;21.13;12.13;;;;;;;14.65;100.00;96816.06;6097444;23;20097;-87
2023/10/20 03:45:14;;;;;;;21.45;11.75;;;;;;;14.66;100.00;96810.50;6095286;23;20084;-89
2023/10/20 03:47:43;;;;;;;19.17;11.52;;;;;;;14.65;100.00;96808.84;6119357;23;20036;-90
2023/10/20 03:50:16;;;;;;;25.52;11.75;;;;;;;14.64;100.00;96791.22;6119372;23;20028;-88
2023/10/20 03:52:45;;;;;;;22.13;10.88;;;;;;;14.61;100.00;96802.38;6120745;23;20033;-90
2023/10/20 03:55:15;;;;;;;20.45;11.95;;;;;;;14.60;100.00;96795.41;6071347;23;20404;-90
2023/10/20 03:57:43;;;;;;;21.27;12.77;;;;;;;14.57;100.00;96779.03;6094450;23;20024;-88
2023/10/20 04:00:35;;;;;;;22.88;11.30;;;;;;;14.55;100.00;96784.59;6071647;23;20020;-90
2023/10/20 04:03:03;;;;;;;17.17;10.60;;;;;;;14.57;100.00;96779.03;6075360;23;20029;-88
2023/10/20 04:05:31;;;;;;;22.60;11.30;;;;;;;14.57;100.00;96750.47;6094387;23;20633;-84
2023/10/20 04:07:58;;;;;;;21.35;12.05;;;;;;;14.52;100.00;96734.31;6095612;23;20096;-85
2023/10/20 04:10:25;;;;;;;20.60;12.13;;;;;;;14.50;100.00;96726.56;6095249;23;20097;-88
2023/10/20 04:12:52;;;;;;;25.77;11.65;;;;;;;14.47;100.00;96729.69;6071537;23;20021;-89
2023/10/20 04:15:25;;;;;;;20.05;11.25;;;;;;;14.49;100.00;96732.94;6069920;23;20026;-88
2023/10/20 04:17:54;;;;;;;18.23;10.80;;;;;;;14.50;100.00;96723.06;6072157;23;20045;-88
2023/10/20 04:20:23;;;;;;;17.55;9.70;;;;;;;14.52;100.00;96720.97;6095658;23;20056;-89
2023/10/20 04:22:50;;;;;;;18.40;11.25;;;;;;;14.54;100.00;96733.06;6095694;23;20025;-87
2023/10/20 04:25:18;;;;;;;20.20;10.27;;;;;;;14.57;100.00;96720.31;6117769;23;20030;-88
2023/10/20 04:27:57;;;;;;;18.52;10.15;;;;;;;14.58;100.00;96706.72;6094668;23;20076;-84
2023/10/20 05:02:57;;;;;;;24.77;12.10;;;;;;;14.57;100.00;96632.19;6095058;23;20037;-85
2023/10/20 05:07:54;;;;;;;19.48;10.70;;;;;;;14.50;100.00;96611.78;6095280;23;20021;-85
2023/10/20 05:10:20;;;;;;;21.42;11.55;;;;;;;14.50;100.00;96605.59;6119623;23;20021;-85
2023/10/20 05:12:48;;;;;;;21.13;11.32;;;;;;;14.50;100.00;96598.41;6119029;23;20101;-85
2023/10/20 05:15:15;;;;;;;20.73;11.63;;;;;;;14.45;100.00;96582.31;6045632;23;20025;-85
2023/10/20 05:17:42;;;;;;;26.95;12.63;;;;;;;14.43;100.00;96564.91;6118392;23;20025;-85
2023/10/20 05:20:10;;;;;;;24.48;12.18;;;;;;;14.44;100.00;96550.50;6071114;23;20032;-86
2023/10/20 05:22:37;;;;;;;21.52;11.90;;;;;;;14.47;100.00;96544.69;6072392;23;20014;-85
2023/10/20 05:25:04;;;;;;;25.58;12.75;;;;;;;14.45;100.00;96534.25;6118584;23;20567;-86
2023/10/20 05:27:32;;;;;;;25.13;11.60;;;;;;;14.45;100.00;96520.91;6118683;23;20052;-86
2023/10/20 05:29:59;;;;;;;24.90;13.23;;;;;;;14.43;100.00;96492.84;6095187;23;20026;-86
2023/10/20 05:32:27;;;;;;;28.63;13.50;;;;;;;14.40;100.00;96475.44;6119553;23;20026;-85
2023/10/20 05:34:54;;;;;;;26.08;13.43;;;;;;;14.42;100.00;96478.66;6095160;23;20021;-86
2023/10/20 05:37:24;;;;;;;27.73;13.35;;;;;;;14.38;100.00;96477.53;6118454;23;20025;-86
2023/10/20 05:39:50;;;;;;;30.85;13.50;;;;;;;14.41;100.00;96465.56;6119646;23;20108;-86
2023/10/20 05:42:17;;;;;;;24.75;13.57;;;;;;;14.42;100.00;96461.84;6094941;23;20478;-86
2023/10/20 05:44:58;;;;;;;25.25;13.10;;;;;;;14.41;100.00;96439.69;6094191;23;20029;-86
2023/10/20 05:47:32;;;;;;;27.48;14.00;;;;;;;14.33;100.00;96442.78;6075026;23;20096;-87
2023/10/20 05:50:00;;;;;;;25.40;13.68;;;;;;;14.36;100.00;96444.94;6094847;23;20025;-86
2023/10/20 05:52:28;;;;;;;26.55;14.60;;;;;;;14.36;100.00;96450.28;6118407;23;20022;-85
2023/10/20 05:54:57;;;;;;;25.92;13.52;;;;;;;14.37;100.00;96459.09;6093684;23;20060;-86
2023/10/20 05:57:25;;;;;;;22.00;13.02;;;;;;;14.39;100.00;96475.69;6119103;23;20475;-86
2023/10/20 05:59:52;;;;;;;24.80;13.20;;;;;;;14.43;100.00;96487.50;6119493;23;20018;-87
2023/10/20 06:02:19;;;;;;;26.13;13.38;;;;;;;14.45;100.00;96482.72;6093636;23;20030;-86
2023/10/20 06:04:45;;;;;;;22.17;12.23;;;;;;;14.46;100.00;96474.47;6094999;23;20029;-86
2023/10/20 06:07:12;;;;;;;23.52;13.27;;;;;;;14.48;100.00;96450.22;6093377;23;20353;-86
2023/10/20 06:09:39;;;;;;;26.42;13.30;;;;;;;14.49;100.00;96443.81;6071332;23;20025;-85
2023/10/20 06:12:10;;;;;;;23.92;13.55;;;;;;;14.46;100.00;96417.59;6118996;23;20018;-86
2023/10/20 06:14:37;;;;;;;32.67;15.75;;;;;;;14.45;100.00;96394.63;6118996;23;20024;-86
2023/10/20 06:17:03;;;;;;;29.65;14.15;;;;;;;14.43;100.00;96376.19;6069698;23;20028;-85
2023/10/20 06:19:31;;;;;;;25.63;13.80;;;;;;;14.40;100.00;96383.88;6070599;23;20358;-86
2023/10/20 06:22:00;;;;;;;22.85;12.57;;;;;;;14.41;100.00;96375.63;6094173;23;20464;-84
2023/10/20 06:24:27;;;;;;;24.70;13.55;;;;;;;14.41;100.00;96362.28;6044355;23;20088;-85
2023/10/20 06:26:55;;;;;;;32.50;13.23;;;;;;;14.39;100.00;96361.72;6091664;23;20109;-85
2023/10/20 06:31:58;;;;;;;29.17;13.65;;;;;;;14.40;100.00;96358.00;6118653;23;20752;-85
2023/10/20 06:34:25;;;;;;;;;;;;;;;14.27;100.00;96335.13;6118199;23;20674;-85
2023/10/20 06:37:01;;;;;;;29.13;13.50;;;;;;;14.32;100.00;96323.69;6116041;23;19995;-85
2023/10/20 06:39:28;;;;;;;28.33;14.77;;;;;;;14.32;100.00;96303.19;6072249;23;20013;-85
2023/10/20 06:41:57;;;;;;;31.98;14.20;;;;;;;14.33;100.00;96296.78;6110519;23;20049;-85
2023/10/20 06:44:25;;;;;;;29.13;14.65;;;;;;;14.31;100.00;96274.88;6094094;23;20026;-85
2023/10/20 06:46:52;;;;;;;30.58;15.95;;;;;;;14.27;100.00;96280.94;6117158;23;20026;-85
2023/10/20 06:49:19;;;;;;;24.70;13.73;;;;;;;14.28;100.00;96270.03;6093178;23;20622;-86
2023/10/20 06:51:47;;;;;;;32.42;15.07;;;;;;;14.30;100.00;96281.28;6069511;23;20033;-86
2023/10/20 06:54:15;;;;;;;33.80;15.05;;;;;;;14.35;100.00;96283.19;6092628;23;20026;-85
2023/10/20 06:56:42;;;;;;;28.45;14.57;;;;;;;14.35;100.00;96277.88;6092528;23;20092;-86
2023/10/20 06:59:13;;;;;;;26.25;14.10;;;;;;;14.35;100.00;96261.84;6091790;23;20025;-86
2023/10/20 07:01:41;;;;;;;26.83;13.27;;;;;;;14.33;100.00;96261.28;6141644;23;20022;-86
2023/10/20 07:04:11;;;;;;;22.15;12.90;;;;;;;14.32;100.00;96248.97;6116080;23;20026;-86
2023/10/20 07:06:38;;;;;;;26.00;13.18;;;;;;;14.37;100.00;96253.56;6117021;23;20611;-87
2023/10/20 07:09:13;;;;;;;25.17;13.38;;;;;;;14.40;100.00;96261.91;6067891;23;20036;-87
2023/10/20 07:11:42;;;;;;;28.20;12.25;;;;;;;14.43;100.00;96250.75;6141856;23;20084;-86
2023/10/20 07:14:13;;;;;;;25.08;12.68;;;;;;;14.44;100.00;96233.66;6092850;23;20014;-86
2023/10/20 07:16:40;;;;;;;20.85;12.05;;;;;;;14.45;100.00;96232.63;6116214;23;20032;-86
2023/10/20 07:19:08;;;;;;;23.50;11.43;;;;;;;14.47;100.00;96227.00;6116165;23;20465;-86
2023/10/20 07:21:34;;;;;;;21.65;11.40;;;;;;;14.46;100.00;96218.19;6116346;23;20026;-86
2023/10/20 07:24:04;;;;;;;22.05;12.05;;;;;;;14.49;100.00;96214.22;6142669;23;20061;-86
2023/10/20 07:26:31;;;;;;;21.85;11.32;;;;;;;14.50;100.00;96216.66;6118811;23;20018;-86
2023/10/20 07:28:58;;;;;;;20.65;11.80;;;;;;;14.51;100.00;96222.81;6140830;23;20056;-87
2023/10/20 07:31:26;;;;;;;19.67;10.30;;;;;;;14.53;100.00;96229.53;6091057;23;20029;-86
2023/10/20 07:33:53;;;;;;;17.67;9.82;;;;;;;14.54;100.00;96238.34;6094201;23;20024;-86
2023/10/20 07:36:20;;;;;;;18.88;10.45;;;;;;;14.56;100.00;96232.75;6118272;23;20730;-87
2023/10/20 07:38:47;;;;;;;16.98;10.52;;;;;;;14.55;100.00;96234.59;6117102;23;20025;-86
2023/10/20 07:41:14;;;;;;;19.38;10.05;;;;;;;14.56;100.00;96228.22;6094250;23;20021;-86
2023/10/20 07:43:41;;;;;;;17.90;9.80;;;;;;;14.58;100.00;96230.63;6093960;23;20080;-86
2023/10/20 07:46:16;;;;;;;18.55;10.02;;;;;;;14.56;100.00;96219.41;6093723;23;20026;-86
2023/10/20 07:48:42;;;;;;;20.10;10.48;;;;;;;14.58;100.00;96209.28;6069282;23;20025;-86
2023/10/20 07:51:09;;;;;;;21.30;10.98;;;;;;;14.58;100.00;96223.44;6117400;23;20795;-86
2023/10/20 07:53:37;;;;;;;21.13;11.27;;;;;;;14.54;100.00;96235.69;6142477;23;20056;-86
2023/10/20 07:56:04;;;;;;;18.48;11.80;;;;;;;14.55;100.00;96231.94;6141964;23;20028;-86
2023/10/20 07:58:32;;;;;;;19.17;10.80;;;;;;;14.56;100.00;96235.44;6118211;23;20558;-86
2023/10/20 08:01:00;;;;;;;18.33;10.85;;;;;;;14.51;100.00;96230.81;6118685;23;20033;-86
2023/10/20 08:03:27;;;;;;;22.40;10.80;;;;;;;14.56;100.00;96232.75;6118390;23;20746;-87
2023/10/20 08:05:54;;;;;;;24.38;10.63;;;;;;;14.54;100.00;96244.47;6142171;23;20087;-87
2023/10/20 08:08:22;;;;;;;22.10;10.23;;;;;;;14.57;100.00;96245.84;6117503;23;20025;-86
2023/10/20 08:10:49;;;;;;;19.55;10.05;;;;;;;14.59;100.00;96253.63;6117928;23;20354;-86
2023/10/20 08:13:17;;;;;;;20.70;10.48;;;;;;;14.60;100.00;96261.38;6070632;23;20075;-87
2023/10/20 08:15:44;;;;;;;20.02;9.77;;;;;;;14.63;100.00;96265.41;6093446;23;20025;-86
2023/10/20 08:18:11;;;;;;;21.15;10.63;;;;;;;14.63;100.00;96263.56;6092731;23;20018;-86
2023/10/20 08:20:38;;;;;;;18.92;11.15;;;;;;;14.65;100.00;96264.09;6081787;23;20056;-86
2023/10/20 08:23:06;;;;;;;19.20;11.25;;;;;;;14.66;100.00;96256.91;6093023;23;20043;-86
2023/10/20 08:25:36;;;;;;;24.17;11.15;;;;;;;14.67;100.00;96255.84;6118721;23;20517;-86
2023/10/20 08:28:04;;;;;;;18.65;12.27;;;;;;;14.69;100.00;96265.22;6093679;23;20112;-86
2023/10/20 08:30:31;;;;;;;26.40;14.50;;;;;;;14.67;100.00;96270.00;6143898;23;20528;-86
2023/10/20 08:32:59;;;;;;;38.60;18.67;;;;;;;14.68;100.00;96270.78;6093274;23;20044;-85
2023/10/20 08:35:26;;;;;;;47.85;22.75;;;;;;;14.67;100.00;96270.00;6141854;23;20021;-86
2023/10/20 08:37:53;;;;;;;37.63;19.83;;;;;;;14.69;100.00;96281.25;6068994;23;20048;-86
2023/10/20 08:40:20;;;;;;;33.28;17.48;;;;;;;14.68;100.00;96281.47;6092481;23;20030;-86
2023/10/20 08:42:47;;;;;;;25.20;12.88;;;;;;;14.66;100.00;96268.41;6095106;23;22584;-86
2023/10/20 08:45:15;;;;;;;21.92;12.15;;;;;;;14.68;100.00;96270.78;6142409;23;20096;-86
2023/10/20 08:47:43;;;;;;;21.80;12.40;;;;;;;14.67;100.00;96274.53;6092092;23;20025;-85
2023/10/20 08:50:10;;;;;;;23.63;13.05;;;;;;;14.66;100.00;96276.41;6116946;23;20394;-85
2023/10/20 08:52:38;;;;;;;21.15;11.88;;;;;;;14.64;100.00;96275.03;6117688;23;20072;-86
2023/10/20 08:55:07;;;;;;;22.63;12.82;;;;;;;14.61;100.00;96279.00;6142498;23;20020;-86
2023/10/20 08:57:34;;;;;;;19.95;11.93;;;;;;;14.59;100.00;96283.00;6092837;23;20045;-86
2023/10/20 09:00:01;;;;;;;19.60;12.02;;;;;;;14.61;100.00;96295.03;6092505;23;20841;-85
2023/10/20 09:02:38;;;;;;;20.30;11.82;;;;;;;14.56;100.00;96288.84;6119916;23;20021;-85
2023/10/20 09:05:06;;;;;;;21.60;12.27;;;;;;;14.62;100.00;96291.31;6070302;23;20043;-86
2023/10/20 09:07:34;;;;;;;19.08;11.80;;;;;;;14.62;100.00;96293.97;6044766;23;20096;-86
2023/10/20 09:10:01;;;;;;;20.67;12.38;;;;;;;14.65;100.00;96303.34;6069389;23;20032;-86
2023/10/20 09:12:29;;;;;;;21.85;12.38;;;;;;;14.67;100.00;96307.38;6068540;23;20021;-85
2023/10/20 09:14:57;;;;;;;21.15;11.20;;;;;;;14.70;100.00;96311.41;6069164;23;20037;-86
2023/10/20 09:17:24;;;;;;;20.60;12.07;;;;;;;14.72;100.00;96314.66;6069048;23;20021;-86
2023/10/20 09:19:51;;;;;;;22.42;11.32;;;;;;;14.75;100.00;96338.19;6117500;23;20029;-85
2023/10/20 09:22:28;;;;;;;23.50;12.38;;;;;;;14.74;100.00;96360.63;6068985;23;20032;-86
2023/10/20 09:24:56;;;;;;;20.27;12.35;;;;;;;14.80;100.00;96410.38;6092428;23;20022;-86
2023/10/20 09:27:24;;;;;;;22.42;13.00;;;;;;;14.83;100.00;96388.50;6092483;23;20021;-86
2023/10/20 09:29:52;;;;;;;23.33;13.15;;;;;;;14.86;100.00;96388.03;6068546;23;20048;-86
2023/10/20 09:32:19;;;;;;;22.80;12.68;;;;;;;14.89;100.00;96408.09;6092700;23;20041;-86
2023/10/20 09:34:46;;;;;;;26.35;12.43;;;;;;;14.90;100.00;96423.06;6092304;23;20020;-86
2023/10/20 09:37:16;;;;;;;24.77;13.10;;;;;;;14.92;100.00;96419.09;6117492;23;20036;-86
2023/10/20 09:39:43;;;;;;;22.92;12.40;;;;;;;14.94;100.00;96429.53;6093305;23;20344;-85
2023/10/20 09:42:14;;;;;;;20.27;11.65;;;;;;;14.95;100.00;96431.13;6092025;23;20425;-85
2023/10/20 09:44:58;;;;;;;22.88;12.57;;;;;;;14.93;100.00;96401.19;6090252;23;20126;-86
2023/10/20 09:47:29;;;;;;;23.05;10.98;;;;;;;14.97;100.00;96410.34;6115869;23;20018;-85
2023/10/20 09:49:57;;;;;;;23.67;11.23;;;;;;;14.98;100.00;96394.06;6143055;23;20041;-85
2023/10/20 09:52:23;;;;;;;20.08;11.88;;;;;;;14.98;100.00;96390.56;6116789;23;20029;-85
2023/10/20 09:54:51;;;;;;;20.05;10.93;;;;;;;15.01;100.00;96405.28;6070405;23;20144;-85
2023/10/20 09:57:19;;;;;;;21.60;11.10;;;;;;;15.04;100.00;96412.84;6115803;23;20041;-85
2023/10/20 09:59:51;;;;;;;20.15;11.68;;;;;;;15.05;100.00;96420.59;6068367;23;20120;-85
2023/10/20 10:02:28;;;;;;;20.48;11.35;;;;;;;15.03;100.00;96420.00;6094597;23;20025;-85
2023/10/20 10:04:59;;;;;;;21.70;12.65;;;;;;;15.07;100.00;96410.47;6093485;23;20031;-85
2023/10/20 10:07:33;;;;;;;25.20;13.25;;;;;;;15.06;100.00;96416.03;6115826;23;20013;-85
2023/10/20 10:10:00;;;;;;;24.52;12.73;;;;;;;15.10;100.00;96409.97;6116792;23;20080;-86
2023/10/20 10:12:28;;;;;;;25.60;13.68;;;;;;;15.13;100.00;96427.34;6116776;23;20898;-85
2023/10/20 10:15:07;;;;;;;22.00;12.32;;;;;;;15.10;100.00;96438.53;6115937;23;20037;-85
2023/10/20 10:17:51;;;;;;;24.73;14.25;;;;;;;15.11;100.00;96446.31;6118459;23;20028;-85
2023/10/20 10:20:28;;;;;;;24.88;13.38;;;;;;;15.15;100.00;96450.09;6118383;23;20043;-85
2023/10/20 10:23:04;;;;;;;32.95;14.32;;;;;;;15.18;100.00;96448.81;6068285;23;20022;-85
2023/10/20 10:25:34;;;;;;;22.95;12.27;;;;;;;15.24;100.00;96455.84;6068980;23;20107;-85
2023/10/20 10:28:14;;;;;;;28.33;13.68;;;;;;;15.21;100.00;96464.34;6091347;23;20052;-85
2023/10/20 10:30:43;;;;;;;23.13;12.73;;;;;;;15.28;100.00;96478.31;6092220;23;20014;-85
2023/10/20 10:33:11;;;;;;;20.00;12.82;;;;;;;15.28;100.00;96486.34;6116567;23;20099;-85
2023/10/20 10:35:39;;;;;;;22.20;13.02;;;;;;;15.30;100.00;96494.13;6094800;23;20072;-85
2023/10/20 10:38:20;;;;;;;23.73;13.27;;;;;;;15.27;100.00;96495.44;6118704;23;20442;-85
2023/10/20 10:40:49;;;;;;;23.83;13.27;;;;;;;15.33;100.00;96483.75;6117046;23;20017;-85
2023/10/20 10:43:18;;;;;;;21.10;12.90;;;;;;;15.38;100.00;96489.16;6069684;23;20022;-85
2023/10/20 10:45:45;;;;;;;24.23;12.88;;;;;;;15.41;100.00;96488.66;6094777;23;20086;-85
2023/10/20 10:48:14;;;;;;;24.38;12.55;;;;;;;15.42;100.00;96494.81;6070144;23;20038;-85
2023/10/20 10:50:46;;;;;;;24.88;12.93;;;;;;;15.44;100.00;96490.00;6094912;23;20041;-85
2023/10/20 10:53:15;;;;;;;26.25;14.18;;;;;;;15.47;100.00;96478.84;6094261;23;20025;-85
2023/10/20 10:55:43;;;;;;;26.73;13.68;;;;;;;15.48;100.00;96469.75;6071201;23;20025;-85
2023/10/20 10:58:12;;;;;;;22.77;13.23;;;;;;;15.47;100.00;96472.66;6115656;23;20409;-85
2023/10/20 11:00:40;;;;;;;21.17;11.73;;;;;;;15.51;100.00;96476.47;6116036;23;20025;-85
2023/10/20 11:03:07;;;;;;;19.63;11.80;;;;;;;15.54;100.00;96471.41;6091276;23;20076;-85
2023/10/20 11:05:34;;;;;;;19.20;11.65;;;;;;;15.58;100.00;96458.38;6117734;23;20018;-86
2023/10/20 11:08:07;;;;;;;24.05;12.73;;;;;;;15.59;100.00;96459.97;6093779;23;20032;-85
2023/10/20 11:10:37;;;;;;;20.95;12.13;;;;;;;15.62;100.00;96462.16;6093670;23;20609;-86
2023/10/20 11:13:06;;;;;;;21.85;11.95;;;;;;;15.64;100.00;96460.03;6116557;23;20029;-85
2023/10/20 11:15:32;;;;;;;20.50;11.57;;;;;;;15.64;100.00;96455.50;6091948;23;20021;-85
2023/10/20 11:18:01;;;;;;;25.90;12.95;;;;;;;15.67;100.00;96453.38;6095777;23;20046;-85
2023/10/20 11:20:33;;;;;;;23.08;14.40;;;;;;;15.67;100.00;96458.72;6096175;23;20030;-85
2023/10/20 11:23:04;;;;;;;23.55;12.88;;;;;;;15.68;100.00;96471.06;6096573;23;20029;-85
2023/10/20 11:25:31;;;;;;;26.10;14.13;;;;;;;15.67;100.00;96474.78;6096101;23;20464;-85
2023/10/20 11:27:57;;;;;;;23.80;13.15;;;;;;;15.65;100.00;96480.38;6072280;23;20115;-85
2023/10/20 11:30:41;;;;;;;21.52;13.07;;;;;;;15.62;100.00;96486.22;6096281;23;20449;-85
2023/10/20 11:33:10;;;;;;;25.55;14.80;;;;;;;15.60;100.00;96488.34;6072157;23;20609;-86
2023/10/20 11:35:42;;;;;;;;;;;;;;;15.46;100.00;96489.78;6120203;23;20092;-86
2023/10/20 11:38:09;;;;;;;23.20;13.98;;;;;;;15.53;100.00;96501.91;6096175;23;19939;-85
2023/10/20 11:40:36;;;;;;;21.48;12.50;;;;;;;15.57;100.00;96507.56;6072134;23;20526;-86
2023/10/20 11:43:04;;;;;;;19.52;10.65;;;;;;;15.57;100.00;96518.25;6119659;23;20037;-85
2023/10/20 11:45:31;;;;;;;20.05;10.20;;;;;;;15.58;100.00;96526.03;6096430;23;20630;-85
2023/10/20 11:47:58;;;;;;;25.50;11.77;;;;;;;15.59;100.00;96521.50;6095609;23;20490;-85
2023/10/20 11:50:25;;;;;;;23.27;11.85;;;;;;;15.62;100.00;96523.66;6144389;23;20520;-85
2023/10/20 11:52:52;;;;;;;20.17;10.02;;;;;;;15.63;100.00;96526.09;6121183;23;20617;-85